sensor_id;sensor_type;location;lat;lon;timestamp;P1;durP1;ratioP1;P2;durP2;ratioP2
1206;SDS011;593;53.184;8.216;2022-08-01T00:00:23;2.00;;;1.90;;
1206;SDS011;593;53.184;8.216;2022-08-01T00:02:49;1.43;;;1.33;;
1206;SDS011;593;53.184;8.216;2022-08-01T00:05:14;1.63;;;1.53;;
1206;SDS011;593;53.184;8.216;2022-08-01T00:07:40;1.53;;;1.43;;
1206;SDS011;593;53.184;8.216;2022-08-01T00:10:06;1.87;;;1.77;;
1206;SDS011;593;53.184;8.216;2022-08-01T00:12:33;3.47;;;1.30;;
1206;SDS011;593;53.184;8.216;2022-08-01T00:14:59;1.70;;;1.60;;
1206;SDS011;593;53.184;8.216;2022-08-01T00:17:25;1.60;;;1.40;;
1206;SDS011;593;53.184;8.216;2022-08-01T00:19:50;1.80;;;1.70;;
1206;SDS011;593;53.184;8.216;2022-08-01T00:22:15;1.63;;;1.53;;
1206;SDS011;593;53.184;8.216;2022-08-01T00:24:41;2.13;;;1.80;;
1206;SDS011;593;53.184;8.216;2022-08-01T00:27:06;2.00;;;1.67;;
1206;SDS011;593;53.184;8.216;2022-08-01T00:29:32;2.33;;;2.13;;
1206;SDS011;593;53.184;8.216;2022-08-01T00:31:57;3.67;;;2.50;;
1206;SDS011;593;53.184;8.216;2022-08-01T00:34:22;1.57;;;1.40;;
1206;SDS011;593;53.184;8.216;2022-08-01T00:36:48;2.27;;;2.17;;
1206;SDS011;593;53.184;8.216;2022-08-01T00:39:13;3.60;;;2.00;;
1206;SDS011;593;53.184;8.216;2022-08-01T00:41:38;3.10;;;2.90;;
1206;SDS011;593;53.184;8.216;2022-08-01T00:44:04;2.47;;;2.27;;
1206;SDS011;593;53.184;8.216;2022-08-01T00:46:30;2.60;;;2.40;;
1206;SDS011;593;53.184;8.216;2022-08-01T00:48:56;1.83;;;1.73;;
1206;SDS011;593;53.184;8.216;2022-08-01T00:51:22;2.90;;;2.30;;
1206;SDS011;593;53.184;8.216;2022-08-01T00:53:48;3.00;;;2.67;;
1206;SDS011;593;53.184;8.216;2022-08-01T00:56:15;2.60;;;1.90;;
1206;SDS011;593;53.184;8.216;2022-08-01T00:58:41;2.43;;;2.20;;
1206;SDS011;593;53.184;8.216;2022-08-01T01:01:06;2.60;;;2.00;;
1206;SDS011;593;53.184;8.216;2022-08-01T01:03:32;3.27;;;2.80;;
1206;SDS011;593;53.184;8.216;2022-08-01T01:06:05;3.30;;;2.93;;
1206;SDS011;593;53.184;8.216;2022-08-01T01:08:35;3.53;;;3.23;;
1206;SDS011;593;53.184;8.216;2022-08-01T01:11:09;3.70;;;3.40;;
1206;SDS011;593;53.184;8.216;2022-08-01T01:13:50;2.70;;;2.50;;
1206;SDS011;593;53.184;8.216;2022-08-01T01:16:19;3.50;;;3.20;;
1206;SDS011;593;53.184;8.216;2022-08-01T01:18:49;3.47;;;3.17;;
1206;SDS011;593;53.184;8.216;2022-08-01T01:29:32;1.60;;;1.50;;
1206;SDS011;593;53.184;8.216;2022-08-01T01:32:04;1.77;;;1.67;;
1206;SDS011;593;53.184;8.216;2022-08-01T01:34:35;2.47;;;2.17;;
1206;SDS011;593;53.184;8.216;2022-08-01T01:37:04;2.07;;;1.97;;
1206;SDS011;593;53.184;8.216;2022-08-01T01:39:32;2.87;;;2.30;;
1206;SDS011;593;53.184;8.216;2022-08-01T01:42:01;2.13;;;2.03;;
1206;SDS011;593;53.184;8.216;2022-08-01T01:44:27;2.37;;;2.13;;
1206;SDS011;593;53.184;8.216;2022-08-01T01:46:53;3.37;;;3.07;;
1206;SDS011;593;53.184;8.216;2022-08-01T01:49:21;3.30;;;2.43;;
1206;SDS011;593;53.184;8.216;2022-08-01T01:51:50;3.00;;;2.70;;
1206;SDS011;593;53.184;8.216;2022-08-01T01:54:17;3.60;;;2.10;;
1206;SDS011;593;53.184;8.216;2022-08-01T01:56:44;3.17;;;2.97;;
1206;SDS011;593;53.184;8.216;2022-08-01T01:59:15;3.30;;;3.10;;
1206;SDS011;593;53.184;8.216;2022-08-01T02:01:46;2.50;;;2.20;;
1206;SDS011;593;53.184;8.216;2022-08-01T02:04:14;2.97;;;2.30;;
1206;SDS011;593;53.184;8.216;2022-08-01T02:06:41;2.77;;;2.57;;
1206;SDS011;593;53.184;8.216;2022-08-01T02:09:08;4.37;;;4.03;;
1206;SDS011;593;53.184;8.216;2022-08-01T02:11:35;2.30;;;2.10;;
1206;SDS011;593;53.184;8.216;2022-08-01T02:14:03;2.37;;;2.13;;
1206;SDS011;593;53.184;8.216;2022-08-01T02:16:29;2.47;;;2.27;;
1206;SDS011;593;53.184;8.216;2022-08-01T02:18:59;1.50;;;1.40;;
1206;SDS011;593;53.184;8.216;2022-08-01T02:21:26;1.70;;;1.37;;
1206;SDS011;593;53.184;8.216;2022-08-01T02:23:54;1.27;;;1.17;;
1206;SDS011;593;53.184;8.216;2022-08-01T02:26:25;1.60;;;1.50;;
1206;SDS011;593;53.184;8.216;2022-08-01T02:28:59;2.23;;;2.03;;
1206;SDS011;593;53.184;8.216;2022-08-01T02:31:31;1.53;;;1.30;;
1206;SDS011;593;53.184;8.216;2022-08-01T02:34:01;1.70;;;1.57;;
1206;SDS011;593;53.184;8.216;2022-08-01T02:36:31;1.40;;;1.30;;
1206;SDS011;593;53.184;8.216;2022-08-01T02:39:00;3.20;;;1.50;;
1206;SDS011;593;53.184;8.216;2022-08-01T02:41:28;1.33;;;1.23;;
1206;SDS011;593;53.184;8.216;2022-08-01T02:43:58;1.17;;;1.07;;
1206;SDS011;593;53.184;8.216;2022-08-01T02:46:50;1.20;;;1.10;;
1206;SDS011;593;53.184;8.216;2022-08-01T02:49:22;1.30;;;1.20;;
1206;SDS011;593;53.184;8.216;2022-08-01T02:51:51;1.40;;;1.30;;
1206;SDS011;593;53.184;8.216;2022-08-01T02:54:19;1.07;;;0.97;;
1206;SDS011;593;53.184;8.216;2022-08-01T02:56:47;1.40;;;1.30;;
1206;SDS011;593;53.184;8.216;2022-08-01T02:59:16;1.20;;;1.10;;
1206;SDS011;593;53.184;8.216;2022-08-01T03:01:44;1.23;;;1.13;;
1206;SDS011;593;53.184;8.216;2022-08-01T03:04:11;1.93;;;1.50;;
1206;SDS011;593;53.184;8.216;2022-08-01T03:06:38;1.50;;;1.40;;
1206;SDS011;593;53.184;8.216;2022-08-01T03:09:04;1.73;;;1.60;;
1206;SDS011;593;53.184;8.216;2022-08-01T03:11:31;1.90;;;1.80;;
1206;SDS011;593;53.184;8.216;2022-08-01T03:14:01;2.00;;;1.90;;
1206;SDS011;593;53.184;8.216;2022-08-01T03:16:30;1.83;;;1.40;;
1206;SDS011;593;53.184;8.216;2022-08-01T03:18:58;1.27;;;1.17;;
1206;SDS011;593;53.184;8.216;2022-08-01T03:21:26;2.20;;;1.70;;
1206;SDS011;593;53.184;8.216;2022-08-01T03:23:54;1.90;;;1.80;;
1206;SDS011;593;53.184;8.216;2022-08-01T03:26:26;1.60;;;1.50;;
1206;SDS011;593;53.184;8.216;2022-08-01T03:28:55;2.00;;;1.90;;
1206;SDS011;593;53.184;8.216;2022-08-01T03:31:24;1.90;;;1.80;;
1206;SDS011;593;53.184;8.216;2022-08-01T03:33:50;1.60;;;1.50;;
1206;SDS011;593;53.184;8.216;2022-08-01T03:36:16;1.63;;;1.53;;
1206;SDS011;593;53.184;8.216;2022-08-01T03:38:44;1.53;;;1.43;;
1206;SDS011;593;53.184;8.216;2022-08-01T03:41:13;3.20;;;1.60;;
1206;SDS011;593;53.184;8.216;2022-08-01T03:43:46;4.20;;;1.80;;
1206;SDS011;593;53.184;8.216;2022-08-01T03:46:17;1.70;;;1.60;;
1206;SDS011;593;53.184;8.216;2022-08-01T03:48:47;1.60;;;1.50;;
1206;SDS011;593;53.184;8.216;2022-08-01T03:51:15;2.30;;;1.83;;
1206;SDS011;593;53.184;8.216;2022-08-01T03:53:42;1.30;;;1.20;;
1206;SDS011;593;53.184;8.216;2022-08-01T03:56:10;1.40;;;1.30;;
1206;SDS011;593;53.184;8.216;2022-08-01T03:58:41;1.67;;;1.50;;
1206;SDS011;593;53.184;8.216;2022-08-01T04:01:07;1.80;;;1.67;;
1206;SDS011;593;53.184;8.216;2022-08-01T04:03:36;2.70;;;1.50;;
1206;SDS011;593;53.184;8.216;2022-08-01T04:06:05;1.50;;;1.30;;
1206;SDS011;593;53.184;8.216;2022-08-01T04:08:36;1.10;;;1.00;;
1206;SDS011;593;53.184;8.216;2022-08-01T04:11:03;1.53;;;1.43;;
1206;SDS011;593;53.184;8.216;2022-08-01T04:13:29;1.73;;;1.20;;
1206;SDS011;593;53.184;8.216;2022-08-01T04:15:56;1.17;;;1.07;;
1206;SDS011;593;53.184;8.216;2022-08-01T04:18:21;3.83;;;1.50;;
1206;SDS011;593;53.184;8.216;2022-08-01T04:20:46;2.90;;;0.90;;
1206;SDS011;593;53.184;8.216;2022-08-01T04:23:12;1.40;;;0.90;;
1206;SDS011;593;53.184;8.216;2022-08-01T04:25:44;1.10;;;1.00;;
1206;SDS011;593;53.184;8.216;2022-08-01T04:28:12;1.20;;;1.00;;
1206;SDS011;593;53.184;8.216;2022-08-01T04:30:42;0.90;;;0.90;;
1206;SDS011;593;53.184;8.216;2022-08-01T04:33:11;1.53;;;1.10;;
1206;SDS011;593;53.184;8.216;2022-08-01T04:35:41;1.00;;;0.90;;
1206;SDS011;593;53.184;8.216;2022-08-01T04:38:10;1.10;;;1.00;;
1206;SDS011;593;53.184;8.216;2022-08-01T04:40:39;1.47;;;1.00;;
1206;SDS011;593;53.184;8.216;2022-08-01T04:43:06;1.73;;;1.40;;
1206;SDS011;593;53.184;8.216;2022-08-01T04:45:32;2.00;;;1.20;;
1206;SDS011;593;53.184;8.216;2022-08-01T04:47:58;2.17;;;1.30;;
1206;SDS011;593;53.184;8.216;2022-08-01T04:50:25;1.60;;;1.50;;
1206;SDS011;593;53.184;8.216;2022-08-01T04:52:50;1.13;;;1.07;;
1206;SDS011;593;53.184;8.216;2022-08-01T04:55:16;1.87;;;1.30;;
1206;SDS011;593;53.184;8.216;2022-08-01T04:57:43;2.20;;;1.07;;
1206;SDS011;593;53.184;8.216;2022-08-01T05:00:10;1.60;;;1.20;;
1206;SDS011;593;53.184;8.216;2022-08-01T05:02:36;1.30;;;1.20;;
1206;SDS011;593;53.184;8.216;2022-08-01T05:05:02;3.47;;;1.23;;
1206;SDS011;593;53.184;8.216;2022-08-01T05:07:27;3.03;;;1.50;;
1206;SDS011;593;53.184;8.216;2022-08-01T05:09:53;2.63;;;1.40;;
1206;SDS011;593;53.184;8.216;2022-08-01T05:12:18;3.97;;;1.50;;
1206;SDS011;593;53.184;8.216;2022-08-01T05:14:44;2.53;;;1.40;;
1206;SDS011;593;53.184;8.216;2022-08-01T05:17:10;2.13;;;1.53;;
1206;SDS011;593;53.184;8.216;2022-08-01T05:19:36;2.40;;;1.57;;
1206;SDS011;593;53.184;8.216;2022-08-01T05:22:04;2.27;;;1.57;;
1206;SDS011;593;53.184;8.216;2022-08-01T05:24:32;4.80;;;1.87;;
1206;SDS011;593;53.184;8.216;2022-08-01T05:27:02;2.77;;;1.97;;
1206;SDS011;593;53.184;8.216;2022-08-01T05:29:28;2.90;;;1.70;;
1206;SDS011;593;53.184;8.216;2022-08-01T05:31:54;4.17;;;1.33;;
1206;SDS011;593;53.184;8.216;2022-08-01T05:34:20;1.80;;;1.30;;
1206;SDS011;593;53.184;8.216;2022-08-01T05:36:45;4.93;;;1.43;;
1206;SDS011;593;53.184;8.216;2022-08-01T05:39:11;2.73;;;1.20;;
1206;SDS011;593;53.184;8.216;2022-08-01T05:41:37;3.20;;;1.77;;
1206;SDS011;593;53.184;8.216;2022-08-01T05:44:03;2.13;;;1.60;;
1206;SDS011;593;53.184;8.216;2022-08-01T05:46:29;3.97;;;2.00;;
1206;SDS011;593;53.184;8.216;2022-08-01T05:48:56;2.53;;;1.80;;
1206;SDS011;593;53.184;8.216;2022-08-01T05:51:22;2.77;;;1.57;;
1206;SDS011;593;53.184;8.216;2022-08-01T05:53:48;2.70;;;1.40;;
1206;SDS011;593;53.184;8.216;2022-08-01T05:56:13;4.03;;;2.03;;
1206;SDS011;593;53.184;8.216;2022-08-01T05:58:39;5.07;;;1.90;;
1206;SDS011;593;53.184;8.216;2022-08-01T06:01:04;5.83;;;2.10;;
1206;SDS011;593;53.184;8.216;2022-08-01T06:03:29;2.53;;;2.00;;
1206;SDS011;593;53.184;8.216;2022-08-01T06:05:56;3.73;;;2.23;;
1206;SDS011;593;53.184;8.216;2022-08-01T06:08:22;2.83;;;1.83;;
1206;SDS011;593;53.184;8.216;2022-08-01T06:10:47;4.90;;;1.90;;
1206;SDS011;593;53.184;8.216;2022-08-01T06:13:13;1.80;;;1.63;;
1206;SDS011;593;53.184;8.216;2022-08-01T06:15:39;3.73;;;1.70;;
1206;SDS011;593;53.184;8.216;2022-08-01T06:18:04;3.37;;;1.57;;
1206;SDS011;593;53.184;8.216;2022-08-01T06:20:30;5.37;;;1.93;;
1206;SDS011;593;53.184;8.216;2022-08-01T06:22:55;4.20;;;1.57;;
1206;SDS011;593;53.184;8.216;2022-08-01T06:25:21;5.17;;;1.90;;
1206;SDS011;593;53.184;8.216;2022-08-01T06:27:46;7.40;;;2.43;;
1206;SDS011;593;53.184;8.216;2022-08-01T06:30:12;5.07;;;2.63;;
1206;SDS011;593;53.184;8.216;2022-08-01T06:32:38;3.17;;;2.13;;
1206;SDS011;593;53.184;8.216;2022-08-01T06:35:03;6.27;;;2.30;;
1206;SDS011;593;53.184;8.216;2022-08-01T06:37:30;4.13;;;2.37;;
1206;SDS011;593;53.184;8.216;2022-08-01T06:40:00;6.53;;;2.00;;
1206;SDS011;593;53.184;8.216;2022-08-01T06:42:29;3.90;;;1.90;;
1206;SDS011;593;53.184;8.216;2022-08-01T06:45:03;2.77;;;2.10;;
1206;SDS011;593;53.184;8.216;2022-08-01T06:47:30;3.27;;;1.90;;
1206;SDS011;593;53.184;8.216;2022-08-01T06:49:55;6.33;;;2.10;;
1206;SDS011;593;53.184;8.216;2022-08-01T06:52:21;4.33;;;2.20;;
1206;SDS011;593;53.184;8.216;2022-08-01T06:54:46;5.87;;;2.47;;
1206;SDS011;593;53.184;8.216;2022-08-01T06:57:12;7.17;;;2.63;;
1206;SDS011;593;53.184;8.216;2022-08-01T06:59:37;3.97;;;1.50;;
1206;SDS011;593;53.184;8.216;2022-08-01T07:02:02;5.00;;;2.30;;
1206;SDS011;593;53.184;8.216;2022-08-01T07:04:28;6.40;;;1.93;;
1206;SDS011;593;53.184;8.216;2022-08-01T07:06:53;4.30;;;2.20;;
1206;SDS011;593;53.184;8.216;2022-08-01T07:09:19;4.83;;;2.20;;
1206;SDS011;593;53.184;8.216;2022-08-01T07:11:44;4.33;;;2.13;;
1206;SDS011;593;53.184;8.216;2022-08-01T07:14:09;3.00;;;2.00;;
1206;SDS011;593;53.184;8.216;2022-08-01T07:16:35;5.97;;;2.10;;
1206;SDS011;593;53.184;8.216;2022-08-01T07:19:00;6.67;;;1.90;;
1206;SDS011;593;53.184;8.216;2022-08-01T07:21:26;3.87;;;1.83;;
1206;SDS011;593;53.184;8.216;2022-08-01T07:23:51;6.73;;;2.03;;
1206;SDS011;593;53.184;8.216;2022-08-01T07:26:16;4.13;;;2.10;;
1206;SDS011;593;53.184;8.216;2022-08-01T07:28:42;6.30;;;1.77;;
1206;SDS011;593;53.184;8.216;2022-08-01T07:31:07;5.30;;;1.57;;
1206;SDS011;593;53.184;8.216;2022-08-01T07:33:33;6.97;;;1.83;;
1206;SDS011;593;53.184;8.216;2022-08-01T07:35:58;4.30;;;2.13;;
1206;SDS011;593;53.184;8.216;2022-08-01T07:38:23;8.47;;;2.63;;
1206;SDS011;593;53.184;8.216;2022-08-01T07:40:49;5.70;;;1.53;;
1206;SDS011;593;53.184;8.216;2022-08-01T07:43:14;4.00;;;1.70;;
1206;SDS011;593;53.184;8.216;2022-08-01T07:45:40;3.43;;;1.70;;
1206;SDS011;593;53.184;8.216;2022-08-01T07:48:06;3.33;;;1.87;;
1206;SDS011;593;53.184;8.216;2022-08-01T07:50:32;3.23;;;1.67;;
1206;SDS011;593;53.184;8.216;2022-08-01T07:52:58;9.67;;;3.13;;
1206;SDS011;593;53.184;8.216;2022-08-01T07:55:24;2.23;;;1.60;;
1206;SDS011;593;53.184;8.216;2022-08-01T07:57:49;5.80;;;2.07;;
1206;SDS011;593;53.184;8.216;2022-08-01T08:00:15;5.47;;;1.90;;
1206;SDS011;593;53.184;8.216;2022-08-01T08:02:41;4.30;;;1.90;;
1206;SDS011;593;53.184;8.216;2022-08-01T08:05:07;3.60;;;1.93;;
1206;SDS011;593;53.184;8.216;2022-08-01T08:07:33;2.83;;;1.57;;
1206;SDS011;593;53.184;8.216;2022-08-01T08:09:58;3.13;;;1.80;;
1206;SDS011;593;53.184;8.216;2022-08-01T08:12:24;5.20;;;1.93;;
1206;SDS011;593;53.184;8.216;2022-08-01T08:14:49;4.40;;;1.80;;
1206;SDS011;593;53.184;8.216;2022-08-01T08:17:15;2.70;;;1.40;;
1206;SDS011;593;53.184;8.216;2022-08-01T08:19:40;3.30;;;1.67;;
1206;SDS011;593;53.184;8.216;2022-08-01T08:22:06;5.33;;;1.53;;
1206;SDS011;593;53.184;8.216;2022-08-01T08:24:32;4.20;;;1.37;;
1206;SDS011;593;53.184;8.216;2022-08-01T08:26:58;1.80;;;1.17;;
1206;SDS011;593;53.184;8.216;2022-08-01T08:29:25;5.10;;;1.67;;
1206;SDS011;593;53.184;8.216;2022-08-01T08:31:52;4.73;;;1.47;;
1206;SDS011;593;53.184;8.216;2022-08-01T08:34:19;3.90;;;1.67;;
1206;SDS011;593;53.184;8.216;2022-08-01T08:36:45;4.00;;;1.20;;
1206;SDS011;593;53.184;8.216;2022-08-01T08:39:10;4.10;;;1.40;;
1206;SDS011;593;53.184;8.216;2022-08-01T08:41:36;3.13;;;1.33;;
1206;SDS011;593;53.184;8.216;2022-08-01T08:44:02;6.87;;;2.23;;
1206;SDS011;593;53.184;8.216;2022-08-01T08:46:32;7.00;;;1.40;;
1206;SDS011;593;53.184;8.216;2022-08-01T08:48:58;6.00;;;1.67;;
1206;SDS011;593;53.184;8.216;2022-08-01T08:51:26;6.57;;;1.73;;
1206;SDS011;593;53.184;8.216;2022-08-01T08:53:53;4.33;;;1.20;;
1206;SDS011;593;53.184;8.216;2022-08-01T08:56:20;4.40;;;1.57;;
1206;SDS011;593;53.184;8.216;2022-08-01T08:58:46;3.53;;;1.30;;
1206;SDS011;593;53.184;8.216;2022-08-01T09:01:12;5.83;;;2.07;;
1206;SDS011;593;53.184;8.216;2022-08-01T09:03:39;4.23;;;1.57;;
1206;SDS011;593;53.184;8.216;2022-08-01T09:06:05;4.50;;;1.60;;
1206;SDS011;593;53.184;8.216;2022-08-01T09:08:32;1.20;;;0.90;;
1206;SDS011;593;53.184;8.216;2022-08-01T09:10:58;2.57;;;1.57;;
1206;SDS011;593;53.184;8.216;2022-08-01T09:13:23;3.90;;;1.27;;
1206;SDS011;593;53.184;8.216;2022-08-01T09:15:53;2.40;;;1.20;;
1206;SDS011;593;53.184;8.216;2022-08-01T09:18:33;5.67;;;1.40;;
1206;SDS011;593;53.184;8.216;2022-08-01T09:23:31;3.77;;;0.90;;
1206;SDS011;593;53.184;8.216;2022-08-01T09:25:57;3.80;;;1.53;;
1206;SDS011;593;53.184;8.216;2022-08-01T09:28:29;3.70;;;1.40;;
1206;SDS011;593;53.184;8.216;2022-08-01T09:30:58;4.20;;;1.47;;
1206;SDS011;593;53.184;8.216;2022-08-01T09:33:46;4.67;;;1.70;;
1206;SDS011;593;53.184;8.216;2022-08-01T09:36:11;5.83;;;1.77;;
1206;SDS011;593;53.184;8.216;2022-08-01T09:38:37;7.40;;;1.60;;
1206;SDS011;593;53.184;8.216;2022-08-01T09:41:02;3.93;;;1.63;;
1206;SDS011;593;53.184;8.216;2022-08-01T09:43:28;3.90;;;1.77;;
1206;SDS011;593;53.184;8.216;2022-08-01T09:45:55;5.87;;;1.60;;
1206;SDS011;593;53.184;8.216;2022-08-01T09:48:21;2.60;;;1.40;;
1206;SDS011;593;53.184;8.216;2022-08-01T09:50:49;4.63;;;2.00;;
1206;SDS011;593;53.184;8.216;2022-08-01T09:53:16;5.33;;;1.73;;
1206;SDS011;593;53.184;8.216;2022-08-01T09:55:42;5.13;;;1.70;;
1206;SDS011;593;53.184;8.216;2022-08-01T09:58:09;6.70;;;1.60;;
1206;SDS011;593;53.184;8.216;2022-08-01T10:00:37;3.20;;;1.33;;
1206;SDS011;593;53.184;8.216;2022-08-01T10:03:37;3.73;;;1.40;;
1206;SDS011;593;53.184;8.216;2022-08-01T10:05:59;6.23;;;2.30;;
1206;SDS011;593;53.184;8.216;2022-08-01T10:08:54;3.07;;;1.50;;
1206;SDS011;593;53.184;8.216;2022-08-01T10:11:28;4.00;;;1.50;;
1206;SDS011;593;53.184;8.216;2022-08-01T10:14:10;6.63;;;1.10;;
1206;SDS011;593;53.184;8.216;2022-08-01T10:16:48;4.90;;;1.10;;
1206;SDS011;593;53.184;8.216;2022-08-01T10:19:29;1.67;;;1.57;;
1206;SDS011;593;53.184;8.216;2022-08-01T10:22:05;2.00;;;1.03;;
1206;SDS011;593;53.184;8.216;2022-08-01T10:24:34;3.63;;;2.10;;
1206;SDS011;593;53.184;8.216;2022-08-01T10:27:04;4.97;;;1.60;;
1206;SDS011;593;53.184;8.216;2022-08-01T10:29:35;5.13;;;1.60;;
1206;SDS011;593;53.184;8.216;2022-08-01T10:32:05;4.30;;;1.20;;
1206;SDS011;593;53.184;8.216;2022-08-01T10:34:34;2.50;;;1.00;;
1206;SDS011;593;53.184;8.216;2022-08-01T10:37:00;3.20;;;1.30;;
1206;SDS011;593;53.184;8.216;2022-08-01T10:39:26;3.60;;;1.33;;
1206;SDS011;593;53.184;8.216;2022-08-01T10:41:54;2.77;;;1.03;;
1206;SDS011;593;53.184;8.216;2022-08-01T10:44:20;4.67;;;1.40;;
1206;SDS011;593;53.184;8.216;2022-08-01T10:46:47;2.30;;;1.10;;
1206;SDS011;593;53.184;8.216;2022-08-01T10:49:17;4.30;;;1.57;;
1206;SDS011;593;53.184;8.216;2022-08-01T10:51:45;3.93;;;0.97;;
1206;SDS011;593;53.184;8.216;2022-08-01T10:54:11;4.47;;;1.20;;
1206;SDS011;593;53.184;8.216;2022-08-01T10:56:59;5.87;;;1.40;;
1206;SDS011;593;53.184;8.216;2022-08-01T10:59:25;1.17;;;1.03;;
1206;SDS011;593;53.184;8.216;2022-08-01T11:01:59;1.93;;;0.90;;
1206;SDS011;593;53.184;8.216;2022-08-01T11:05:12;2.70;;;1.40;;
1206;SDS011;593;53.184;8.216;2022-08-01T11:07:38;2.80;;;0.80;;
1206;SDS011;593;53.184;8.216;2022-08-01T11:10:04;3.23;;;1.20;;
1206;SDS011;593;53.184;8.216;2022-08-01T11:12:41;1.77;;;0.80;;
1206;SDS011;593;53.184;8.216;2022-08-01T11:17:40;1.90;;;1.03;;
1206;SDS011;593;53.184;8.216;2022-08-01T11:20:15;2.57;;;1.17;;
1206;SDS011;593;53.184;8.216;2022-08-01T11:25:25;2.13;;;0.90;;
1206;SDS011;593;53.184;8.216;2022-08-01T11:33:10;1.93;;;1.00;;
1206;SDS011;593;53.184;8.216;2022-08-01T11:35:36;1.77;;;0.73;;
1206;SDS011;593;53.184;8.216;2022-08-01T11:38:25;1.67;;;0.80;;
1206;SDS011;593;53.184;8.216;2022-08-01T11:44:01;1.67;;;1.00;;
1206;SDS011;593;53.184;8.216;2022-08-01T11:46:49;2.40;;;0.90;;
1206;SDS011;593;53.184;8.216;2022-08-01T11:51:56;1.33;;;0.80;;
1206;SDS011;593;53.184;8.216;2022-08-01T11:54:30;2.63;;;1.00;;
1206;SDS011;593;53.184;8.216;2022-08-01T11:57:01;2.10;;;1.07;;
1206;SDS011;593;53.184;8.216;2022-08-01T11:59:37;1.67;;;0.90;;
1206;SDS011;593;53.184;8.216;2022-08-01T12:02:14;1.73;;;0.80;;
1206;SDS011;593;53.184;8.216;2022-08-01T12:04:44;3.17;;;1.27;;
1206;SDS011;593;53.184;8.216;2022-08-01T12:07:33;2.43;;;1.00;;
1206;SDS011;593;53.184;8.216;2022-08-01T12:10:07;1.93;;;1.00;;
1206;SDS011;593;53.184;8.216;2022-08-01T12:12:35;10.43;;;2.33;;
1206;SDS011;593;53.184;8.216;2022-08-01T12:15:06;3.13;;;0.80;;
1206;SDS011;593;53.184;8.216;2022-08-01T12:17:39;3.60;;;0.80;;
1206;SDS011;593;53.184;8.216;2022-08-01T12:20:10;1.63;;;0.83;;
1206;SDS011;593;53.184;8.216;2022-08-01T12:22:37;3.50;;;0.87;;
1206;SDS011;593;53.184;8.216;2022-08-01T12:27:34;2.47;;;1.30;;
1206;SDS011;593;53.184;8.216;2022-08-01T12:30:00;4.30;;;1.20;;
1206;SDS011;593;53.184;8.216;2022-08-01T12:32:29;2.40;;;0.90;;
1206;SDS011;593;53.184;8.216;2022-08-01T12:34:57;1.20;;;0.80;;
1206;SDS011;593;53.184;8.216;2022-08-01T12:37:26;3.23;;;0.90;;
1206;SDS011;593;53.184;8.216;2022-08-01T12:39:51;2.97;;;0.90;;
1206;SDS011;593;53.184;8.216;2022-08-01T12:42:17;3.80;;;1.13;;
1206;SDS011;593;53.184;8.216;2022-08-01T12:44:44;2.57;;;0.83;;
1206;SDS011;593;53.184;8.216;2022-08-01T12:47:12;1.93;;;0.77;;
1206;SDS011;593;53.184;8.216;2022-08-01T12:49:40;3.07;;;0.90;;
1206;SDS011;593;53.184;8.216;2022-08-01T12:52:07;3.33;;;0.90;;
1206;SDS011;593;53.184;8.216;2022-08-01T12:57:26;3.47;;;1.10;;
1206;SDS011;593;53.184;8.216;2022-08-01T13:02:32;2.70;;;1.40;;
1206;SDS011;593;53.184;8.216;2022-08-01T13:04:59;1.43;;;0.80;;
1206;SDS011;593;53.184;8.216;2022-08-01T13:07:41;2.20;;;1.00;;
1206;SDS011;593;53.184;8.216;2022-08-01T13:10:15;4.23;;;1.00;;
1206;SDS011;593;53.184;8.216;2022-08-01T13:12:53;4.63;;;1.30;;
1206;SDS011;593;53.184;8.216;2022-08-01T13:15:23;3.03;;;0.90;;
1206;SDS011;593;53.184;8.216;2022-08-01T13:17:56;1.97;;;1.10;;
1206;SDS011;593;53.184;8.216;2022-08-01T13:20:27;3.83;;;1.13;;
1206;SDS011;593;53.184;8.216;2022-08-01T13:23:15;3.87;;;0.97;;
1206;SDS011;593;53.184;8.216;2022-08-01T13:25:48;4.17;;;1.47;;
1206;SDS011;593;53.184;8.216;2022-08-01T13:28:22;1.83;;;1.17;;
1206;SDS011;593;53.184;8.216;2022-08-01T13:33:25;4.93;;;1.00;;
1206;SDS011;593;53.184;8.216;2022-08-01T13:35:53;2.30;;;1.00;;
1206;SDS011;593;53.184;8.216;2022-08-01T13:38:20;2.27;;;0.97;;
1206;SDS011;593;53.184;8.216;2022-08-01T13:41:06;2.23;;;0.83;;
1206;SDS011;593;53.184;8.216;2022-08-01T13:43:31;2.30;;;0.90;;
1206;SDS011;593;53.184;8.216;2022-08-01T13:45:57;2.03;;;0.97;;
1206;SDS011;593;53.184;8.216;2022-08-01T13:48:22;4.03;;;1.17;;
1206;SDS011;593;53.184;8.216;2022-08-01T13:50:48;3.93;;;1.00;;
1206;SDS011;593;53.184;8.216;2022-08-01T13:53:13;1.20;;;0.90;;
1206;SDS011;593;53.184;8.216;2022-08-01T13:55:38;3.97;;;1.30;;
1206;SDS011;593;53.184;8.216;2022-08-01T13:58:04;2.40;;;1.20;;
1206;SDS011;593;53.184;8.216;2022-08-01T14:00:30;1.73;;;1.10;;
1206;SDS011;593;53.184;8.216;2022-08-01T14:02:55;5.87;;;1.37;;
1206;SDS011;593;53.184;8.216;2022-08-01T14:05:20;1.00;;;0.90;;
1206;SDS011;593;53.184;8.216;2022-08-01T14:07:46;1.40;;;0.90;;
1206;SDS011;593;53.184;8.216;2022-08-01T14:10:11;1.87;;;0.90;;
1206;SDS011;593;53.184;8.216;2022-08-01T14:12:36;3.83;;;1.10;;
1206;SDS011;593;53.184;8.216;2022-08-01T14:15:02;1.93;;;1.10;;
1206;SDS011;593;53.184;8.216;2022-08-01T14:17:27;6.07;;;1.30;;
1206;SDS011;593;53.184;8.216;2022-08-01T14:19:53;2.07;;;1.00;;
1206;SDS011;593;53.184;8.216;2022-08-01T14:22:18;4.03;;;1.03;;
1206;SDS011;593;53.184;8.216;2022-08-01T14:24:44;3.60;;;1.20;;
1206;SDS011;593;53.184;8.216;2022-08-01T14:27:09;1.53;;;1.00;;
1206;SDS011;593;53.184;8.216;2022-08-01T14:29:35;2.10;;;1.07;;
1206;SDS011;593;53.184;8.216;2022-08-01T14:32:00;2.80;;;1.30;;
1206;SDS011;593;53.184;8.216;2022-08-01T14:34:25;1.73;;;0.80;;
1206;SDS011;593;53.184;8.216;2022-08-01T14:36:51;1.40;;;0.90;;
1206;SDS011;593;53.184;8.216;2022-08-01T14:39:18;1.77;;;0.93;;
1206;SDS011;593;53.184;8.216;2022-08-01T14:41:43;2.47;;;1.00;;
1206;SDS011;593;53.184;8.216;2022-08-01T14:44:08;3.17;;;1.30;;
1206;SDS011;593;53.184;8.216;2022-08-01T14:46:34;1.27;;;0.90;;
1206;SDS011;593;53.184;8.216;2022-08-01T14:48:59;1.60;;;1.03;;
1206;SDS011;593;53.184;8.216;2022-08-01T14:51:25;3.33;;;1.23;;
1206;SDS011;593;53.184;8.216;2022-08-01T14:53:50;2.93;;;1.30;;
1206;SDS011;593;53.184;8.216;2022-08-01T14:56:16;7.33;;;1.73;;
1206;SDS011;593;53.184;8.216;2022-08-01T14:58:42;2.83;;;1.30;;
1206;SDS011;593;53.184;8.216;2022-08-01T15:01:07;1.80;;;1.20;;
1206;SDS011;593;53.184;8.216;2022-08-01T15:03:33;2.97;;;1.50;;
1206;SDS011;593;53.184;8.216;2022-08-01T15:05:58;1.67;;;0.80;;
1206;SDS011;593;53.184;8.216;2022-08-01T15:08:23;3.83;;;1.47;;
1206;SDS011;593;53.184;8.216;2022-08-01T15:10:49;2.60;;;1.00;;
1206;SDS011;593;53.184;8.216;2022-08-01T15:13:14;3.77;;;0.97;;
1206;SDS011;593;53.184;8.216;2022-08-01T15:15:39;1.20;;;0.83;;
1206;SDS011;593;53.184;8.216;2022-08-01T15:18:05;2.37;;;1.07;;
1206;SDS011;593;53.184;8.216;2022-08-01T15:20:30;2.80;;;1.10;;
1206;SDS011;593;53.184;8.216;2022-08-01T15:22:56;1.77;;;0.80;;
1206;SDS011;593;53.184;8.216;2022-08-01T15:25:21;2.43;;;1.17;;
1206;SDS011;593;53.184;8.216;2022-08-01T15:27:47;4.20;;;1.03;;
1206;SDS011;593;53.184;8.216;2022-08-01T15:30:12;2.23;;;1.00;;
1206;SDS011;593;53.184;8.216;2022-08-01T15:32:37;5.00;;;1.00;;
1206;SDS011;593;53.184;8.216;2022-08-01T15:35:03;2.83;;;1.20;;
1206;SDS011;593;53.184;8.216;2022-08-01T15:37:31;3.37;;;1.50;;
1206;SDS011;593;53.184;8.216;2022-08-01T15:39:56;1.97;;;1.00;;
1206;SDS011;593;53.184;8.216;2022-08-01T15:42:21;2.20;;;1.00;;
1206;SDS011;593;53.184;8.216;2022-08-01T15:44:47;2.60;;;1.20;;
1206;SDS011;593;53.184;8.216;2022-08-01T15:47:12;1.57;;;1.33;;
1206;SDS011;593;53.184;8.216;2022-08-01T15:49:38;2.13;;;1.17;;
1206;SDS011;593;53.184;8.216;2022-08-01T15:52:04;1.33;;;1.00;;
1206;SDS011;593;53.184;8.216;2022-08-01T15:54:31;3.20;;;1.07;;
1206;SDS011;593;53.184;8.216;2022-08-01T15:56:57;3.10;;;0.80;;
1206;SDS011;593;53.184;8.216;2022-08-01T15:59:23;2.97;;;1.37;;
1206;SDS011;593;53.184;8.216;2022-08-01T16:01:48;4.17;;;1.20;;
1206;SDS011;593;53.184;8.216;2022-08-01T16:04:14;2.00;;;1.30;;
1206;SDS011;593;53.184;8.216;2022-08-01T16:06:40;2.90;;;0.97;;
1206;SDS011;593;53.184;8.216;2022-08-01T16:09:06;2.70;;;1.50;;
1206;SDS011;593;53.184;8.216;2022-08-01T16:11:31;2.87;;;1.10;;